Circleville, Texas
Current Conditions -  °F | °C
As of 11:51 PM on Monday 26 Jan 2015 (Local Time) from KATT Reporting Station
Clear Clear  
Wind Chill: 55°   Ceiling: Unl
Heat Index: 55°   Visibility: 10mi
Dew Point: 40°   Wind: 5mph
Humidity: 57%   Direction: 310°NW
Pressure: 30.18"   Gusts: NA
Location:  30.265°N, 97.9624°W
Report Text: KATT 270551Z AUTO 31004KT 10SM CLR 13/04 A3018 RMK AO2 SLP216 T01280044 10178 20122 402330078 50000 $
Loading
Personal Weather Stations






























Interactive Weather Map New forecast layout! Learn more

10-Day Weather Forecast

Advertisements
Track Severe Weather on mobile